sensor_id;sensor_type;location;lat;lon;timestamp;temperature;humidity
52963;DHT22;38827;53.024;6.596;2022-09-23T00:04:34;10.30;72.00
52963;DHT22;38827;53.024;6.596;2022-09-23T00:07:00;10.30;72.00
52963;DHT22;38827;53.024;6.596;2022-09-23T00:09:26;10.30;72.00
52963;DHT22;38827;53.024;6.596;2022-09-23T00:11:54;10.30;72.10
52963;DHT22;38827;53.024;6.596;2022-09-23T00:14:20;10.30;72.30
52963;DHT22;38827;53.024;6.596;2022-09-23T00:16:46;10.30;72.30
52963;DHT22;38827;53.024;6.596;2022-09-23T00:19:12;10.30;72.20
52963;DHT22;38827;53.024;6.596;2022-09-23T00:21:37;10.30;72.30
52963;DHT22;38827;53.024;6.596;2022-09-23T00:24:08;10.30;72.40
52963;DHT22;38827;53.024;6.596;2022-09-23T00:26:34;10.30;72.60
52963;DHT22;38827;53.024;6.596;2022-09-23T00:29:00;10.20;72.60
52963;DHT22;38827;53.024;6.596;2022-09-23T00:31:26;10.20;72.80
52963;DHT22;38827;53.024;6.596;2022-09-23T00:33:54;10.20;73.00
52963;DHT22;38827;53.024;6.596;2022-09-23T00:36:21;10.10;73.10
52963;DHT22;38827;53.024;6.596;2022-09-23T00:38:47;10.10;73.20
52963;DHT22;38827;53.024;6.596;2022-09-23T00:41:13;10.10;73.20
52963;DHT22;38827;53.024;6.596;2022-09-23T00:43:52;10.10;73.30
52963;DHT22;38827;53.024;6.596;2022-09-23T00:46:42;10.10;73.00
52963;DHT22;38827;53.024;6.596;2022-09-23T00:49:28;10.10;72.90
52963;DHT22;38827;53.024;6.596;2022-09-23T00:51:59;10.10;72.80
52963;DHT22;38827;53.024;6.596;2022-09-23T00:54:34;10.10;73.00
52963;DHT22;38827;53.024;6.596;2022-09-23T00:57:00;10.00;73.20
52963;DHT22;38827;53.024;6.596;2022-09-23T00:59:28;10.00;73.30
52963;DHT22;38827;53.024;6.596;2022-09-23T01:01:55;10.00;73.30
52963;DHT22;38827;53.024;6.596;2022-09-23T01:04:23;10.00;73.30
52963;DHT22;38827;53.024;6.596;2022-09-23T01:06:51;9.90;73.40
52963;DHT22;38827;53.024;6.596;2022-09-23T01:09:17;9.90;73.60
52963;DHT22;38827;53.024;6.596;2022-09-23T01:14:52;9.90;73.40
52963;DHT22;38827;53.024;6.596;2022-09-23T01:31:19;9.90;73.70
52963;DHT22;38827;53.024;6.596;2022-09-23T01:33:57;9.90;73.40
52963;DHT22;38827;53.024;6.596;2022-09-23T01:37:02;9.90;73.20
52963;DHT22;38827;53.024;6.596;2022-09-23T01:40:22;9.90;73.10
52963;DHT22;38827;53.024;6.596;2022-09-23T01:42:55;9.90;73.00
52963;DHT22;38827;53.024;6.596;2022-09-23T01:45:58;9.90;73.10
52963;DHT22;38827;53.024;6.596;2022-09-23T01:48:50;9.80;73.20
52963;DHT22;38827;53.024;6.596;2022-09-23T01:57:43;9.80;73.20
52963;DHT22;38827;53.024;6.596;2022-09-23T02:08:16;9.80;73.20
52963;DHT22;38827;53.024;6.596;2022-09-23T02:11:06;9.80;73.10
52963;DHT22;38827;53.024;6.596;2022-09-23T02:18:58;9.80;73.40
52963;DHT22;38827;53.024;6.596;2022-09-23T02:21:48;9.90;73.10
52963;DHT22;38827;53.024;6.596;2022-09-23T02:24:19;9.90;73.00
52963;DHT22;38827;53.024;6.596;2022-09-23T02:30:25;9.90;72.80
52963;DHT22;38827;53.024;6.596;2022-09-23T02:35:47;9.90;72.90
52963;DHT22;38827;53.024;6.596;2022-09-23T02:38:55;9.80;72.80
52963;DHT22;38827;53.024;6.596;2022-09-23T02:44:18;9.70;72.80
52963;DHT22;38827;53.024;6.596;2022-09-23T02:46:57;9.70;72.70
52963;DHT22;38827;53.024;6.596;2022-09-23T02:49:30;9.60;72.80
52963;DHT22;38827;53.024;6.596;2022-09-23T02:52:00;9.60;73.10
52963;DHT22;38827;53.024;6.596;2022-09-23T02:54:32;9.60;73.40
52963;DHT22;38827;53.024;6.596;2022-09-23T02:57:14;9.50;73.40
52963;DHT22;38827;53.024;6.596;2022-09-23T02:59:40;9.50;73.50
52963;DHT22;38827;53.024;6.596;2022-09-23T03:11:11;9.30;73.60
52963;DHT22;38827;53.024;6.596;2022-09-23T03:14:14;9.30;73.80
52963;DHT22;38827;53.024;6.596;2022-09-23T03:19:32;9.20;73.90
52963;DHT22;38827;53.024;6.596;2022-09-23T03:24:49;9.20;74.00
52963;DHT22;38827;53.024;6.596;2022-09-23T03:27:30;9.20;73.90
52963;DHT22;38827;53.024;6.596;2022-09-23T03:29:57;9.20;73.90
52963;DHT22;38827;53.024;6.596;2022-09-23T03:32:25;9.20;74.00
52963;DHT22;38827;53.024;6.596;2022-09-23T03:34:55;9.20;74.00
52963;DHT22;38827;53.024;6.596;2022-09-23T03:40:39;9.20;74.20
52963;DHT22;38827;53.024;6.596;2022-09-23T03:43:16;9.20;74.10
52963;DHT22;38827;53.024;6.596;2022-09-23T03:45:45;9.10;74.00
52963;DHT22;38827;53.024;6.596;2022-09-23T03:48:14;9.10;74.00
52963;DHT22;38827;53.024;6.596;2022-09-23T03:50:55;9.10;74.10
52963;DHT22;38827;53.024;6.596;2022-09-23T03:53:33;9.10;74.00
52963;DHT22;38827;53.024;6.596;2022-09-23T03:56:05;9.10;74.10
52963;DHT22;38827;53.024;6.596;2022-09-23T03:58:46;9.00;74.10
52963;DHT22;38827;53.024;6.596;2022-09-23T04:01:32;9.00;74.20
52963;DHT22;38827;53.024;6.596;2022-09-23T04:04:14;9.00;74.30
52963;DHT22;38827;53.024;6.596;2022-09-23T04:06:40;9.00;74.20
52963;DHT22;38827;53.024;6.596;2022-09-23T04:09:08;8.90;74.40
52963;DHT22;38827;53.024;6.596;2022-09-23T04:11:34;8.90;74.40
52963;DHT22;38827;53.024;6.596;2022-09-23T04:14:03;8.90;74.40
52963;DHT22;38827;53.024;6.596;2022-09-23T04:16:29;8.90;74.40
52963;DHT22;38827;53.024;6.596;2022-09-23T04:18:55;8.90;74.50
52963;DHT22;38827;53.024;6.596;2022-09-23T04:21:21;8.90;74.40
52963;DHT22;38827;53.024;6.596;2022-09-23T04:23:47;8.80;74.50
52963;DHT22;38827;53.024;6.596;2022-09-23T04:26:14;8.80;74.70
52963;DHT22;38827;53.024;6.596;2022-09-23T04:28:39;8.80;74.80
52963;DHT22;38827;53.024;6.596;2022-09-23T04:31:18;8.80;74.70
52963;DHT22;38827;53.024;6.596;2022-09-23T04:33:44;8.80;74.80
52963;DHT22;38827;53.024;6.596;2022-09-23T04:36:09;8.80;74.80
52963;DHT22;38827;53.024;6.596;2022-09-23T04:38:39;8.80;74.70
52963;DHT22;38827;53.024;6.596;2022-09-23T04:41:08;8.80;74.70
52963;DHT22;38827;53.024;6.596;2022-09-23T04:43:34;8.80;74.80
52963;DHT22;38827;53.024;6.596;2022-09-23T04:46:26;8.80;74.80
52963;DHT22;38827;53.024;6.596;2022-09-23T04:49:00;8.80;74.70
52963;DHT22;38827;53.024;6.596;2022-09-23T04:51:42;8.80;74.80
52963;DHT22;38827;53.024;6.596;2022-09-23T04:54:12;8.80;74.80
52963;DHT22;38827;53.024;6.596;2022-09-23T04:56:39;8.80;74.80
52963;DHT22;38827;53.024;6.596;2022-09-23T04:59:05;8.80;74.70
52963;DHT22;38827;53.024;6.596;2022-09-23T05:01:35;8.80;74.70
52963;DHT22;38827;53.024;6.596;2022-09-23T05:04:43;8.90;74.70
52963;DHT22;38827;53.024;6.596;2022-09-23T05:07:23;8.90;74.70
52963;DHT22;38827;53.024;6.596;2022-09-23T05:09:55;8.90;74.80
52963;DHT22;38827;53.024;6.596;2022-09-23T05:12:31;8.90;74.90
52963;DHT22;38827;53.024;6.596;2022-09-23T05:14:57;8.90;74.80
52963;DHT22;38827;53.024;6.596;2022-09-23T05:17:43;8.90;74.80
52963;DHT22;38827;53.024;6.596;2022-09-23T05:20:19;9.00;74.90
52963;DHT22;38827;53.024;6.596;2022-09-23T05:23:09;8.90;74.80
52963;DHT22;38827;53.024;6.596;2022-09-23T05:26:16;9.00;74.70
52963;DHT22;38827;53.024;6.596;2022-09-23T05:29:01;9.00;74.60
52963;DHT22;38827;53.024;6.596;2022-09-23T05:32:10;9.00;74.80
52963;DHT22;38827;53.024;6.596;2022-09-23T05:35:20;9.00;74.70
52963;DHT22;38827;53.024;6.596;2022-09-23T05:37:58;9.00;74.70
52963;DHT22;38827;53.024;6.596;2022-09-23T05:40:43;9.00;74.80
52963;DHT22;38827;53.024;6.596;2022-09-23T05:43:38;9.00;74.90
52963;DHT22;38827;53.024;6.596;2022-09-23T05:46:13;9.00;74.80
52963;DHT22;38827;53.024;6.596;2022-09-23T05:48:42;9.10;74.90
52963;DHT22;38827;53.024;6.596;2022-09-23T05:51:21;9.10;74.90
52963;DHT22;38827;53.024;6.596;2022-09-23T05:53:54;9.10;74.80
52963;DHT22;38827;53.024;6.596;2022-09-23T05:56:23;9.20;74.80
52963;DHT22;38827;53.024;6.596;2022-09-23T05:58:50;9.20;74.70
52963;DHT22;38827;53.024;6.596;2022-09-23T06:01:18;9.30;74.60
52963;DHT22;38827;53.024;6.596;2022-09-23T06:03:49;9.30;74.60
52963;DHT22;38827;53.024;6.596;2022-09-23T06:06:16;9.40;74.60
52963;DHT22;38827;53.024;6.596;2022-09-23T06:08:43;9.50;74.50
52963;DHT22;38827;53.024;6.596;2022-09-23T06:11:09;9.50;74.40
52963;DHT22;38827;53.024;6.596;2022-09-23T06:13:36;9.60;74.30
52963;DHT22;38827;53.024;6.596;2022-09-23T06:16:07;9.60;74.30
52963;DHT22;38827;53.024;6.596;2022-09-23T06:18:34;9.70;74.20
52963;DHT22;38827;53.024;6.596;2022-09-23T06:21:03;9.80;74.10
52963;DHT22;38827;53.024;6.596;2022-09-23T06:23:29;10.00;73.60
52963;DHT22;38827;53.024;6.596;2022-09-23T06:26:05;10.00;73.50
52963;DHT22;38827;53.024;6.596;2022-09-23T06:28:35;10.20;73.20
52963;DHT22;38827;53.024;6.596;2022-09-23T06:31:04;10.30;72.90
52963;DHT22;38827;53.024;6.596;2022-09-23T06:33:31;10.40;72.60
52963;DHT22;38827;53.024;6.596;2022-09-23T06:35:59;10.50;72.40
52963;DHT22;38827;53.024;6.596;2022-09-23T06:38:25;10.70;72.10
52963;DHT22;38827;53.024;6.596;2022-09-23T06:40:53;10.80;71.80
52963;DHT22;38827;53.024;6.596;2022-09-23T06:43:20;10.90;71.40
52963;DHT22;38827;53.024;6.596;2022-09-23T06:45:52;11.00;71.20
52963;DHT22;38827;53.024;6.596;2022-09-23T06:48:18;11.10;70.90
52963;DHT22;38827;53.024;6.596;2022-09-23T06:50:44;11.20;70.70
52963;DHT22;38827;53.024;6.596;2022-09-23T06:53:10;11.30;70.40
52963;DHT22;38827;53.024;6.596;2022-09-23T06:55:37;11.30;70.20
52963;DHT22;38827;53.024;6.596;2022-09-23T06:58:03;11.40;70.10
52963;DHT22;38827;53.024;6.596;2022-09-23T07:00:29;11.40;70.00
52963;DHT22;38827;53.024;6.596;2022-09-23T07:02:55;11.50;69.80
52963;DHT22;38827;53.024;6.596;2022-09-23T07:05:21;11.50;69.70
52963;DHT22;38827;53.024;6.596;2022-09-23T07:07:47;11.60;69.50
52963;DHT22;38827;53.024;6.596;2022-09-23T07:10:13;11.60;69.30
52963;DHT22;38827;53.024;6.596;2022-09-23T07:12:39;11.70;69.30
52963;DHT22;38827;53.024;6.596;2022-09-23T07:15:05;11.70;69.10
52963;DHT22;38827;53.024;6.596;2022-09-23T07:17:31;11.70;69.10
52963;DHT22;38827;53.024;6.596;2022-09-23T07:19:57;11.80;69.20
52963;DHT22;38827;53.024;6.596;2022-09-23T07:22:23;11.80;69.40
52963;DHT22;38827;53.024;6.596;2022-09-23T07:24:50;11.90;69.30
52963;DHT22;38827;53.024;6.596;2022-09-23T07:27:16;11.90;69.20
52963;DHT22;38827;53.024;6.596;2022-09-23T07:29:47;12.00;69.10
52963;DHT22;38827;53.024;6.596;2022-09-23T07:32:13;12.00;68.80
52963;DHT22;38827;53.024;6.596;2022-09-23T07:34:39;12.10;68.80
52963;DHT22;38827;53.024;6.596;2022-09-23T07:37:05;12.10;68.70
52963;DHT22;38827;53.024;6.596;2022-09-23T07:39:30;12.20;68.40
52963;DHT22;38827;53.024;6.596;2022-09-23T07:41:56;12.20;68.10
52963;DHT22;38827;53.024;6.596;2022-09-23T07:44:22;12.30;68.20
52963;DHT22;38827;53.024;6.596;2022-09-23T07:46:50;12.30;68.00
52963;DHT22;38827;53.024;6.596;2022-09-23T07:49:15;12.30;67.80
52963;DHT22;38827;53.024;6.596;2022-09-23T07:51:41;12.40;67.70
52963;DHT22;38827;53.024;6.596;2022-09-23T07:54:12;12.40;67.70
52963;DHT22;38827;53.024;6.596;2022-09-23T07:56:39;12.50;67.60
52963;DHT22;38827;53.024;6.596;2022-09-23T07:59:07;12.50;67.30
52963;DHT22;38827;53.024;6.596;2022-09-23T08:01:36;12.60;67.10
52963;DHT22;38827;53.024;6.596;2022-09-23T08:04:24;12.60;67.10
52963;DHT22;38827;53.024;6.596;2022-09-23T08:06:52;12.80;66.70
52963;DHT22;38827;53.024;6.596;2022-09-23T08:09:20;12.90;66.80
52963;DHT22;38827;53.024;6.596;2022-09-23T08:11:46;13.00;66.80
52963;DHT22;38827;53.024;6.596;2022-09-23T08:14:13;13.10;66.50
52963;DHT22;38827;53.024;6.596;2022-09-23T08:16:39;13.30;66.50
52963;DHT22;38827;53.024;6.596;2022-09-23T08:19:06;13.40;65.80
52963;DHT22;38827;53.024;6.596;2022-09-23T08:21:32;13.50;65.90
52963;DHT22;38827;53.024;6.596;2022-09-23T08:24:04;13.70;65.30
52963;DHT22;38827;53.024;6.596;2022-09-23T08:26:30;13.90;65.10
52963;DHT22;38827;53.024;6.596;2022-09-23T08:28:59;14.10;64.50
52963;DHT22;38827;53.024;6.596;2022-09-23T08:31:25;14.30;63.80
52963;DHT22;38827;53.024;6.596;2022-09-23T08:33:55;14.50;63.40
52963;DHT22;38827;53.024;6.596;2022-09-23T08:36:21;14.80;63.10
52963;DHT22;38827;53.024;6.596;2022-09-23T08:38:47;15.00;62.60
52963;DHT22;38827;53.024;6.596;2022-09-23T08:44:23;15.30;61.40
52963;DHT22;38827;53.024;6.596;2022-09-23T08:47:06;15.40;61.00
52963;DHT22;38827;53.024;6.596;2022-09-23T08:52:34;15.50;61.00
52963;DHT22;38827;53.024;6.596;2022-09-23T08:55:08;15.70;60.40
52963;DHT22;38827;53.024;6.596;2022-09-23T09:00:33;15.70;59.70
52963;DHT22;38827;53.024;6.596;2022-09-23T09:03:16;15.70;60.00
52963;DHT22;38827;53.024;6.596;2022-09-23T09:05:42;15.60;59.90
52963;DHT22;38827;53.024;6.596;2022-09-23T09:08:10;15.60;59.90
52963;DHT22;38827;53.024;6.596;2022-09-23T09:10:41;15.70;59.90
52963;DHT22;38827;53.024;6.596;2022-09-23T09:13:29;15.70;59.70
52963;DHT22;38827;53.024;6.596;2022-09-23T09:16:14;15.80;59.30
52963;DHT22;38827;53.024;6.596;2022-09-23T09:18:54;15.80;59.20
52963;DHT22;38827;53.024;6.596;2022-09-23T09:21:25;15.80;59.40
52963;DHT22;38827;53.024;6.596;2022-09-23T09:23:57;15.70;59.50
52963;DHT22;38827;53.024;6.596;2022-09-23T09:26:25;15.70;59.30
52963;DHT22;38827;53.024;6.596;2022-09-23T09:29:02;15.60;59.50
52963;DHT22;38827;53.024;6.596;2022-09-23T09:31:36;15.60;59.40
52963;DHT22;38827;53.024;6.596;2022-09-23T09:37:06;15.60;59.50
52963;DHT22;38827;53.024;6.596;2022-09-23T09:39:34;15.70;59.40
52963;DHT22;38827;53.024;6.596;2022-09-23T09:42:01;15.80;59.70
52963;DHT22;38827;53.024;6.596;2022-09-23T09:44:49;15.90;59.30
52963;DHT22;38827;53.024;6.596;2022-09-23T09:47:43;15.90;58.60
52963;DHT22;38827;53.024;6.596;2022-09-23T09:50:16;15.90;58.90
52963;DHT22;38827;53.024;6.596;2022-09-23T09:52:49;15.90;59.10
52963;DHT22;38827;53.024;6.596;2022-09-23T09:55:27;15.90;58.90
52963;DHT22;38827;53.024;6.596;2022-09-23T09:57:56;16.00;58.60
52963;DHT22;38827;53.024;6.596;2022-09-23T10:02:53;16.10;58.30
52963;DHT22;38827;53.024;6.596;2022-09-23T10:05:35;16.20;58.10
52963;DHT22;38827;53.024;6.596;2022-09-23T10:11:13;16.40;57.80
52963;DHT22;38827;53.024;6.596;2022-09-23T10:13:40;16.40;57.70
52963;DHT22;38827;53.024;6.596;2022-09-23T10:16:07;16.40;57.90
52963;DHT22;38827;53.024;6.596;2022-09-23T10:21:13;16.40;57.70
52963;DHT22;38827;53.024;6.596;2022-09-23T10:23:54;16.30;58.20
52963;DHT22;38827;53.024;6.596;2022-09-23T10:26:31;16.30;58.10
52963;DHT22;38827;53.024;6.596;2022-09-23T10:29:02;16.30;58.40
52963;DHT22;38827;53.024;6.596;2022-09-23T10:31:34;16.30;58.50
52963;DHT22;38827;53.024;6.596;2022-09-23T10:34:25;16.50;58.50
52963;DHT22;38827;53.024;6.596;2022-09-23T10:37:01;16.60;58.30
52963;DHT22;38827;53.024;6.596;2022-09-23T10:39:27;16.60;58.10
52963;DHT22;38827;53.024;6.596;2022-09-23T10:42:24;16.70;58.50
52963;DHT22;38827;53.024;6.596;2022-09-23T10:51:09;16.80;56.90
52963;DHT22;38827;53.024;6.596;2022-09-23T10:56:39;16.90;57.00
52963;DHT22;38827;53.024;6.596;2022-09-23T10:59:28;17.00;56.60
52963;DHT22;38827;53.024;6.596;2022-09-23T11:13:03;17.30;56.60
52963;DHT22;38827;53.024;6.596;2022-09-23T11:16:00;17.30;56.50
52963;DHT22;38827;53.024;6.596;2022-09-23T11:26:48;17.40;56.80
52963;DHT22;38827;53.024;6.596;2022-09-23T11:29:36;17.40;56.90
52963;DHT22;38827;53.024;6.596;2022-09-23T11:32:28;17.30;56.50
52963;DHT22;38827;53.024;6.596;2022-09-23T11:37:46;17.20;57.20
52963;DHT22;38827;53.024;6.596;2022-09-23T11:40:30;17.20;57.20
52963;DHT22;38827;53.024;6.596;2022-09-23T11:43:02;17.20;57.10
52963;DHT22;38827;53.024;6.596;2022-09-23T11:45:39;17.20;57.10
52963;DHT22;38827;53.024;6.596;2022-09-23T11:56:41;17.10;58.50
52963;DHT22;38827;53.024;6.596;2022-09-23T11:59:09;17.10;58.70
52963;DHT22;38827;53.024;6.596;2022-09-23T12:01:59;17.10;58.40
52963;DHT22;38827;53.024;6.596;2022-09-23T12:04:35;17.20;58.30
52963;DHT22;38827;53.024;6.596;2022-09-23T12:12:25;17.10;58.80
52963;DHT22;38827;53.024;6.596;2022-09-23T12:21:05;17.10;59.80
52963;DHT22;38827;53.024;6.596;2022-09-23T12:24:05;17.10;60.10
52963;DHT22;38827;53.024;6.596;2022-09-23T12:26:31;17.20;60.50
52963;DHT22;38827;53.024;6.596;2022-09-23T12:29:02;17.20;60.90
52963;DHT22;38827;53.024;6.596;2022-09-23T12:31:30;17.20;60.90
52963;DHT22;38827;53.024;6.596;2022-09-23T12:34:16;17.20;61.40
52963;DHT22;38827;53.024;6.596;2022-09-23T12:36:44;17.10;61.70
52963;DHT22;38827;53.024;6.596;2022-09-23T12:39:16;17.10;62.30
52963;DHT22;38827;53.024;6.596;2022-09-23T12:41:47;17.10;62.30
52963;DHT22;38827;53.024;6.596;2022-09-23T12:44:28;17.10;62.60
52963;DHT22;38827;53.024;6.596;2022-09-23T12:49:40;17.10;62.90
52963;DHT22;38827;53.024;6.596;2022-09-23T12:52:32;17.10;63.40
52963;DHT22;38827;53.024;6.596;2022-09-23T12:57:50;17.10;62.80
52963;DHT22;38827;53.024;6.596;2022-09-23T13:05:32;17.20;62.80
52963;DHT22;38827;53.024;6.596;2022-09-23T13:08:24;17.20;63.10
52963;DHT22;38827;53.024;6.596;2022-09-23T13:11:01;17.20;63.10
52963;DHT22;38827;53.024;6.596;2022-09-23T13:13:31;17.10;63.10
52963;DHT22;38827;53.024;6.596;2022-09-23T13:16:23;17.10;63.30
52963;DHT22;38827;53.024;6.596;2022-09-23T13:19:00;17.10;63.40
52963;DHT22;38827;53.024;6.596;2022-09-23T13:27:26;17.10;63.70
52963;DHT22;38827;53.024;6.596;2022-09-23T13:35:25;17.00;64.00
52963;DHT22;38827;53.024;6.596;2022-09-23T13:37:52;17.00;64.00
52963;DHT22;38827;53.024;6.596;2022-09-23T13:40:24;16.90;64.20
52963;DHT22;38827;53.024;6.596;2022-09-23T13:43:14;16.90;64.50
52963;DHT22;38827;53.024;6.596;2022-09-23T13:45:58;16.90;65.00
52963;DHT22;38827;53.024;6.596;2022-09-23T13:48:37;16.90;64.80
52963;DHT22;38827;53.024;6.596;2022-09-23T13:51:38;16.90;64.90
52963;DHT22;38827;53.024;6.596;2022-09-23T13:57:31;16.80;65.20
52963;DHT22;38827;53.024;6.596;2022-09-23T14:06:18;16.60;66.00
52963;DHT22;38827;53.024;6.596;2022-09-23T14:09:43;16.70;66.40
52963;DHT22;38827;53.024;6.596;2022-09-23T14:12:12;16.70;66.50
52963;DHT22;38827;53.024;6.596;2022-09-23T14:15:34;16.70;66.50
52963;DHT22;38827;53.024;6.596;2022-09-23T14:22:27;16.70;66.70
52963;DHT22;38827;53.024;6.596;2022-09-23T14:25:31;16.70;67.20
52963;DHT22;38827;53.024;6.596;2022-09-23T14:31:45;16.70;66.90
52963;DHT22;38827;53.024;6.596;2022-09-23T14:42:36;16.60;67.90
52963;DHT22;38827;53.024;6.596;2022-09-23T15:01:51;16.70;68.20
52963;DHT22;38827;53.024;6.596;2022-09-23T15:05:01;16.80;67.90
52963;DHT22;38827;53.024;6.596;2022-09-23T15:27:32;16.60;69.20
52963;DHT22;38827;53.024;6.596;2022-09-23T15:49:14;16.40;69.30
52963;DHT22;38827;53.024;6.596;2022-09-23T15:52:44;16.30;69.50
52963;DHT22;38827;53.024;6.596;2022-09-23T15:56:00;16.30;70.10
52963;DHT22;38827;53.024;6.596;2022-09-23T16:03:13;16.30;69.80
52963;DHT22;38827;53.024;6.596;2022-09-23T16:06:43;16.30;70.00
52963;DHT22;38827;53.024;6.596;2022-09-23T16:18:50;16.20;70.30
52963;DHT22;38827;53.024;6.596;2022-09-23T16:34:45;15.70;72.10
52963;DHT22;38827;53.024;6.596;2022-09-23T16:44:08;15.60;72.50
52963;DHT22;38827;53.024;6.596;2022-09-23T16:49:58;15.60;73.10
52963;DHT22;38827;53.024;6.596;2022-09-23T16:57:23;15.50;73.20
52963;DHT22;38827;53.024;6.596;2022-09-23T17:20:37;15.20;73.90
52963;DHT22;38827;53.024;6.596;2022-09-23T17:23:57;15.10;73.80
52963;DHT22;38827;53.024;6.596;2022-09-23T17:27:13;15.00;74.20
52963;DHT22;38827;53.024;6.596;2022-09-23T17:30:21;14.90;74.50
52963;DHT22;38827;53.024;6.596;2022-09-23T17:32:50;14.90;74.60
52963;DHT22;38827;53.024;6.596;2022-09-23T17:35:31;14.90;74.90
52963;DHT22;38827;53.024;6.596;2022-09-23T17:38:05;14.90;75.10
52963;DHT22;38827;53.024;6.596;2022-09-23T17:40:35;14.90;75.40
52963;DHT22;38827;53.024;6.596;2022-09-23T17:43:30;14.80;75.60
52963;DHT22;38827;53.024;6.596;2022-09-23T17:46:16;14.80;75.80
52963;DHT22;38827;53.024;6.596;2022-09-23T17:49:00;14.80;75.80
52963;DHT22;38827;53.024;6.596;2022-09-23T17:54:37;14.70;75.70
52963;DHT22;38827;53.024;6.596;2022-09-23T17:57:21;14.70;76.00
52963;DHT22;38827;53.024;6.596;2022-09-23T18:00:29;14.60;76.00
52963;DHT22;38827;53.024;6.596;2022-09-23T18:03:10;14.60;75.90
52963;DHT22;38827;53.024;6.596;2022-09-23T18:09:02;14.70;76.50
52963;DHT22;38827;53.024;6.596;2022-09-23T18:12:28;14.60;76.40
52963;DHT22;38827;53.024;6.596;2022-09-23T18:16:00;14.60;76.50
52963;DHT22;38827;53.024;6.596;2022-09-23T18:18:58;14.60;76.70
52963;DHT22;38827;53.024;6.596;2022-09-23T18:21:58;14.60;76.90
52963;DHT22;38827;53.024;6.596;2022-09-23T18:28:56;14.60;77.30
52963;DHT22;38827;53.024;6.596;2022-09-23T18:34:51;14.60;77.20
52963;DHT22;38827;53.024;6.596;2022-09-23T18:41:05;14.50;77.40
52963;DHT22;38827;53.024;6.596;2022-09-23T18:43:53;14.50;77.50
52963;DHT22;38827;53.024;6.596;2022-09-23T18:46:35;14.50;77.50
52963;DHT22;38827;53.024;6.596;2022-09-23T18:49:11;14.50;77.70
52963;DHT22;38827;53.024;6.596;2022-09-23T18:52:10;14.40;77.70
52963;DHT22;38827;53.024;6.596;2022-09-23T18:54:36;14.40;77.90
52963;DHT22;38827;53.024;6.596;2022-09-23T18:57:01;14.40;78.00
52963;DHT22;38827;53.024;6.596;2022-09-23T18:59:27;14.30;78.20
52963;DHT22;38827;53.024;6.596;2022-09-23T19:01:54;14.30;78.40
52963;DHT22;38827;53.024;6.596;2022-09-23T19:04:22;14.30;78.40
52963;DHT22;38827;53.024;6.596;2022-09-23T19:06:48;14.30;78.60
52963;DHT22;38827;53.024;6.596;2022-09-23T19:09:18;14.20;78.60
52963;DHT22;38827;53.024;6.596;2022-09-23T19:11:44;14.20;78.70
52963;DHT22;38827;53.024;6.596;2022-09-23T19:14:13;14.20;78.60
52963;DHT22;38827;53.024;6.596;2022-09-23T19:16:44;14.20;78.60
52963;DHT22;38827;53.024;6.596;2022-09-23T19:19:13;14.20;78.60
52963;DHT22;38827;53.024;6.596;2022-09-23T19:21:39;14.10;78.70
52963;DHT22;38827;53.024;6.596;2022-09-23T19:24:06;14.20;78.80
52963;DHT22;38827;53.024;6.596;2022-09-23T19:26:37;14.10;78.70
52963;DHT22;38827;53.024;6.596;2022-09-23T19:29:07;14.10;78.70
52963;DHT22;38827;53.024;6.596;2022-09-23T19:31:54;14.10;78.70
52963;DHT22;38827;53.024;6.596;2022-09-23T19:34:54;14.10;78.70
52963;DHT22;38827;53.024;6.596;2022-09-23T19:37:30;14.10;78.90
52963;DHT22;38827;53.024;6.596;2022-09-23T19:40:05;14.10;78.90
52963;DHT22;38827;53.024;6.596;2022-09-23T19:42:30;14.10;78.90
52963;DHT22;38827;53.024;6.596;2022-09-23T19:44:56;14.00;79.00
52963;DHT22;38827;53.024;6.596;2022-09-23T19:50:22;14.00;79.20
52963;DHT22;38827;53.024;6.596;2022-09-23T19:52:48;13.90;79.30
52963;DHT22;38827;53.024;6.596;2022-09-23T19:55:53;13.90;79.50
52963;DHT22;38827;53.024;6.596;2022-09-23T19:58:26;13.90;79.40
52963;DHT22;38827;53.024;6.596;2022-09-23T20:01:10;13.90;79.70
52963;DHT22;38827;53.024;6.596;2022-09-23T20:03:36;13.90;79.70
52963;DHT22;38827;53.024;6.596;2022-09-23T20:06:02;13.90;79.80
52963;DHT22;38827;53.024;6.596;2022-09-23T20:08:47;13.90;79.90
52963;DHT22;38827;53.024;6.596;2022-09-23T20:11:26;13.90;79.90
52963;DHT22;38827;53.024;6.596;2022-09-23T20:13:59;13.90;80.10
52963;DHT22;38827;53.024;6.596;2022-09-23T20:16:35;13.90;80.10
52963;DHT22;38827;53.024;6.596;2022-09-23T20:19:19;13.80;80.20
52963;DHT22;38827;53.024;6.596;2022-09-23T20:21:53;13.80;80.10
52963;DHT22;38827;53.024;6.596;2022-09-23T20:24:46;13.80;80.10
52963;DHT22;38827;53.024;6.596;2022-09-23T20:27:28;13.70;80.30
52963;DHT22;38827;53.024;6.596;2022-09-23T20:30:10;13.70;80.30
52963;DHT22;38827;53.024;6.596;2022-09-23T20:32:54;13.70;80.40
52963;DHT22;38827;53.024;6.596;2022-09-23T20:35:23;13.70;80.40
52963;DHT22;38827;53.024;6.596;2022-09-23T20:37:49;13.70;80.70
52963;DHT22;38827;53.024;6.596;2022-09-23T20:40:15;13.70;80.60
52963;DHT22;38827;53.024;6.596;2022-09-23T20:42:41;13.70;80.50
52963;DHT22;38827;53.024;6.596;2022-09-23T20:45:15;13.60;80.50
52963;DHT22;38827;53.024;6.596;2022-09-23T20:47:44;13.70;80.60
52963;DHT22;38827;53.024;6.596;2022-09-23T20:50:09;13.60;80.70
52963;DHT22;38827;53.024;6.596;2022-09-23T20:52:35;13.60;80.70
52963;DHT22;38827;53.024;6.596;2022-09-23T20:55:02;13.60;80.70
52963;DHT22;38827;53.024;6.596;2022-09-23T20:57:28;13.60;80.80
52963;DHT22;38827;53.024;6.596;2022-09-23T20:59:57;13.50;80.90
52963;DHT22;38827;53.024;6.596;2022-09-23T21:02:22;13.50;81.00
52963;DHT22;38827;53.024;6.596;2022-09-23T21:04:49;13.50;81.00
52963;DHT22;38827;53.024;6.596;2022-09-23T21:07:15;13.50;80.90
52963;DHT22;38827;53.024;6.596;2022-09-23T21:09:41;13.40;81.00
52963;DHT22;38827;53.024;6.596;2022-09-23T21:12:08;13.50;81.00
52963;DHT22;38827;53.024;6.596;2022-09-23T21:14:34;13.50;81.10
52963;DHT22;38827;53.024;6.596;2022-09-23T21:16:59;13.50;81.10
52963;DHT22;38827;53.024;6.596;2022-09-23T21:19:25;13.50;81.30
52963;DHT22;38827;53.024;6.596;2022-09-23T21:21:52;13.50;81.40
52963;DHT22;38827;53.024;6.596;2022-09-23T21:24:19;13.50;81.40
52963;DHT22;38827;53.024;6.596;2022-09-23T21:26:45;13.40;81.30
52963;DHT22;38827;53.024;6.596;2022-09-23T21:29:12;13.40;81.40
52963;DHT22;38827;53.024;6.596;2022-09-23T21:31:38;13.40;81.40
52963;DHT22;38827;53.024;6.596;2022-09-23T21:34:07;13.40;81.50
52963;DHT22;38827;53.024;6.596;2022-09-23T21:36:38;13.40;81.70
52963;DHT22;38827;53.024;6.596;2022-09-23T21:39:07;13.40;81.70
52963;DHT22;38827;53.024;6.596;2022-09-23T21:41:34;13.40;81.70
52963;DHT22;38827;53.024;6.596;2022-09-23T21:44:05;13.40;81.70
52963;DHT22;38827;53.024;6.596;2022-09-23T21:46:32;13.40;81.80
52963;DHT22;38827;53.024;6.596;2022-09-23T21:49:01;13.30;81.70
52963;DHT22;38827;53.024;6.596;2022-09-23T21:51:36;13.30;81.80